createdAt,value
2022-12-26T00:01:24.288Z,7.05
2022-12-26T00:03:55.009Z,7.01
2022-12-26T00:06:25.789Z,7.04
2022-12-26T00:08:54.121Z,7.05
2022-12-26T00:11:22.405Z,7.08
2022-12-26T00:13:55.304Z,7.08
2022-12-26T00:16:22.755Z,7.05
2022-12-26T00:18:51.445Z,7.05
2022-12-26T00:21:19.867Z,7.06
2022-12-26T00:23:49.350Z,7.07
2022-12-26T00:26:19.027Z,7.05
2022-12-26T00:28:47.157Z,7.04
2022-12-26T00:31:20.683Z,7.07
2022-12-26T00:33:49.008Z,7.10
2022-12-26T00:36:32.701Z,7.10
2022-12-26T00:39:01.858Z,7.07
2022-12-26T00:41:30.072Z,7.14
2022-12-26T00:43:57.649Z,7.14
2022-12-26T00:46:26.058Z,7.15
2022-12-26T00:48:53.611Z,7.16
2022-12-26T00:51:23.516Z,7.17
2022-12-26T00:53:50.651Z,7.19
2022-12-26T00:56:18.137Z,7.20
2022-12-26T00:58:48.884Z,7.18
2022-12-26T01:01:19.566Z,7.19
2022-12-26T01:03:47.525Z,7.17
2022-12-26T01:06:14.995Z,7.16
2022-12-26T01:08:44.015Z,7.16
2022-12-26T01:11:17.001Z,7.19
2022-12-26T01:13:45.203Z,7.18
2022-12-26T01:16:12.709Z,7.17
2022-12-26T01:18:40.095Z,7.21
2022-12-26T01:21:11.118Z,7.21
2022-12-26T01:23:38.287Z,7.21
2022-12-26T01:26:18.610Z,7.24
2022-12-26T01:28:52.930Z,7.30
2022-12-26T01:31:20.989Z,7.33
2022-12-26T01:33:49.013Z,7.34
2022-12-26T01:36:17.385Z,7.37
2022-12-26T01:38:46.428Z,7.37
2022-12-26T01:41:21.972Z,7.41
2022-12-26T01:44:00.839Z,7.44
2022-12-26T01:46:44.758Z,7.46
2022-12-26T01:49:27.943Z,7.44
2022-12-26T01:52:00.049Z,7.48
2022-12-26T01:54:39.365Z,7.48
2022-12-26T01:57:18.393Z,7.49
2022-12-26T01:59:46.914Z,7.46
2022-12-26T02:02:17.953Z,7.47
2022-12-26T02:05:10.001Z,7.45
2022-12-26T02:07:41.331Z,7.47
2022-12-26T02:10:13.179Z,7.47
2022-12-26T02:12:41.467Z,7.46
2022-12-26T02:15:12.533Z,7.47
2022-12-26T02:17:41.214Z,7.47
2022-12-26T02:20:38.526Z,7.47
2022-12-26T02:23:32.337Z,7.46
2022-12-26T02:26:17.223Z,7.42
2022-12-26T02:29:06.075Z,7.46
2022-12-26T02:31:49.093Z,7.46
2022-12-26T02:34:43.179Z,7.49
2022-12-26T02:37:36.443Z,7.49
2022-12-26T02:40:36.301Z,7.51
2022-12-26T02:43:16.781Z,7.51
2022-12-26T02:46:28.832Z,7.51
2022-12-26T02:49:10.369Z,7.52
2022-12-26T02:52:19.903Z,7.55
2022-12-26T02:55:25.086Z,7.56
2022-12-26T02:58:25.156Z,7.59
2022-12-26T03:01:21.178Z,7.55
2022-12-26T03:04:11.293Z,7.57
2022-12-26T03:07:00.017Z,7.59
2022-12-26T03:09:51.127Z,7.61
2022-12-26T03:12:52.979Z,7.61
2022-12-26T03:15:26.168Z,7.61
2022-12-26T03:18:03.897Z,7.56
2022-12-26T03:20:37.289Z,7.62
2022-12-26T03:23:13.085Z,7.60
2022-12-26T03:26:11.398Z,7.63
2022-12-26T03:28:41.208Z,7.63
2022-12-26T03:31:11.373Z,7.65
2022-12-26T03:34:03.566Z,7.66
2022-12-26T03:36:41.995Z,7.66
2022-12-26T03:39:58.929Z,7.67
2022-12-26T03:42:56.679Z,7.67
2022-12-26T03:45:58.219Z,7.66
2022-12-26T03:49:00.066Z,7.63
2022-12-26T03:52:03.713Z,7.67
2022-12-26T03:55:00.657Z,7.64
2022-12-26T03:57:55.654Z,7.63
2022-12-26T04:00:41.990Z,7.64
2022-12-26T04:03:32.907Z,7.64
2022-12-26T04:06:22.793Z,7.67
2022-12-26T04:09:17.043Z,7.68
2022-12-26T04:12:04.798Z,7.65
2022-12-26T04:15:17.268Z,7.70
2022-12-26T04:18:11.274Z,7.71
2022-12-26T04:20:56.758Z,7.71
2022-12-26T04:23:59.284Z,7.74
2022-12-26T04:26:50.129Z,7.72
2022-12-26T04:29:36.434Z,7.74
2022-12-26T04:32:32.125Z,7.75
2022-12-26T04:35:37.016Z,7.80
2022-12-26T04:38:25.029Z,7.95
2022-12-26T04:41:16.976Z,8.12
2022-12-26T04:44:03.497Z,8.27
2022-12-26T04:46:34.269Z,8.41
2022-12-26T04:49:24.612Z,8.50
2022-12-26T04:51:54.384Z,8.58
2022-12-26T04:54:21.285Z,8.65
2022-12-26T04:56:49.901Z,8.69
2022-12-26T04:59:17.561Z,8.77
2022-12-26T05:02:03.239Z,8.84
2022-12-26T05:04:49.107Z,8.87
2022-12-26T05:07:48.659Z,8.93
2022-12-26T05:10:23.392Z,8.98
2022-12-26T05:12:50.787Z,9.01
2022-12-26T05:15:18.700Z,9.02
2022-12-26T05:18:04.205Z,9.01
2022-12-26T05:20:51.380Z,9.04
2022-12-26T05:23:48.650Z,9.03
2022-12-26T05:26:37.941Z,8.99
2022-12-26T05:29:05.124Z,9.06
2022-12-26T05:31:35.813Z,9.12
2022-12-26T05:34:10.872Z,9.15
2022-12-26T05:36:40.789Z,9.14
2022-12-26T05:39:10.053Z,9.20
2022-12-26T05:41:37.947Z,9.23
2022-12-26T05:44:08.514Z,9.19
2022-12-26T05:46:37.394Z,9.28
2022-12-26T05:49:05.484Z,9.29
2022-12-26T05:51:34.340Z,9.35
2022-12-26T05:54:03.774Z,9.40
2022-12-26T05:56:31.765Z,9.47
2022-12-26T05:59:02.095Z,9.52
2022-12-26T06:01:30.334Z,9.55
2022-12-26T06:03:59.892Z,9.58
2022-12-26T06:06:29.778Z,9.60
2022-12-26T06:08:59.561Z,9.66
2022-12-26T06:11:27.355Z,9.69
2022-12-26T06:13:56.091Z,9.72
2022-12-26T06:16:23.833Z,9.76
2022-12-26T06:18:50.835Z,9.78
2022-12-26T06:21:20.167Z,9.77
2022-12-26T06:23:50.624Z,9.83
2022-12-26T06:26:17.937Z,9.81
2022-12-26T06:28:45.176Z,9.77
2022-12-26T06:31:21.023Z,9.80
2022-12-26T06:33:54.720Z,9.80
2022-12-26T06:36:26.183Z,9.79
2022-12-26T06:38:55.374Z,9.80
2022-12-26T06:41:23.831Z,9.81
2022-12-26T06:43:51.082Z,9.84
2022-12-26T06:46:21.621Z,9.86
2022-12-26T06:48:48.843Z,9.86
2022-12-26T06:51:24.054Z,9.87
2022-12-26T06:53:52.685Z,9.88
2022-12-26T06:56:24.959Z,9.92
2022-12-26T06:58:56.348Z,9.94
2022-12-26T07:01:24.936Z,9.92
2022-12-26T07:03:54.023Z,9.95
2022-12-26T07:06:35.502Z,9.93
2022-12-26T07:09:17.229Z,9.95
2022-12-26T07:11:49.165Z,10.00
2022-12-26T07:14:17.316Z,10.04
2022-12-26T07:16:45.376Z,10.06
2022-12-26T07:19:14.162Z,10.07
2022-12-26T07:21:42.964Z,10.07
2022-12-26T07:24:19.944Z,10.09
2022-12-26T07:26:48.924Z,10.09
2022-12-26T07:29:19.105Z,10.10
2022-12-26T07:31:46.081Z,10.11
2022-12-26T07:34:15.523Z,10.07
2022-12-26T07:36:42.611Z,10.12
2022-12-26T07:39:09.722Z,10.10
2022-12-26T07:41:55.204Z,10.10
2022-12-26T07:44:23.480Z,10.09
2022-12-26T07:46:50.818Z,10.08
2022-12-26T07:49:18.507Z,10.10
2022-12-26T07:51:45.403Z,10.11
2022-12-26T07:54:13.299Z,10.08
2022-12-26T07:56:42.347Z,10.11
2022-12-26T07:59:17.360Z,10.15
2022-12-26T08:01:44.946Z,10.13
2022-12-26T08:04:14.657Z,10.14
2022-12-26T08:06:42.345Z,10.14
2022-12-26T08:09:13.730Z,10.15
2022-12-26T08:11:41.819Z,10.14
2022-12-26T08:14:11.606Z,10.13
2022-12-26T08:16:39.785Z,10.14
2022-12-26T08:19:06.825Z,10.12
2022-12-26T08:21:34.588Z,10.14
2022-12-26T08:24:01.951Z,10.17
2022-12-26T08:26:29.324Z,10.15
2022-12-26T08:28:57.150Z,10.17
2022-12-26T08:33:56.217Z,10.18
2022-12-26T08:36:26.072Z,10.24
2022-12-26T08:38:53.369Z,10.26
2022-12-26T08:41:20.478Z,10.29
2022-12-26T08:44:25.846Z,10.28
2022-12-26T08:46:39.124Z,10.30
2022-12-26T08:49:06.012Z,10.30
2022-12-26T08:51:32.881Z,10.28
2022-12-26T08:53:59.710Z,10.27
2022-12-26T08:56:28.890Z,10.29
2022-12-26T08:58:56.366Z,10.32
2022-12-26T09:01:25.608Z,10.31
2022-12-26T09:03:54.333Z,10.31
2022-12-26T09:06:21.828Z,10.29
2022-12-26T09:08:49.108Z,10.26
2022-12-26T09:11:19.011Z,10.23
2022-12-26T09:13:47.614Z,10.19
2022-12-26T09:16:24.002Z,10.18
2022-12-26T09:18:58.738Z,10.12
2022-12-26T09:21:26.093Z,10.13
2022-12-26T09:24:02.094Z,10.12
2022-12-26T09:26:30.584Z,10.08
2022-12-26T09:28:58.627Z,10.03
2022-12-26T09:31:30.194Z,10.03
2022-12-26T09:33:57.200Z,10.04
2022-12-26T09:36:29.240Z,10.01
2022-12-26T09:38:57.373Z,10.02
2022-12-26T09:41:27.217Z,10.01
2022-12-26T09:44:03.667Z,10.02
2022-12-26T09:46:46.049Z,10.02
2022-12-26T09:49:38.777Z,10.00
2022-12-26T09:52:14.071Z,10.03
2022-12-26T09:54:48.074Z,9.98
2022-12-26T09:57:19.324Z,10.00
2022-12-26T09:59:54.534Z,10.00
2022-12-26T10:02:25.554Z,10.09
2022-12-26T10:04:54.977Z,10.13
2022-12-26T10:07:22.309Z,10.15
2022-12-26T10:10:08.638Z,10.17
2022-12-26T10:13:00.878Z,10.19
2022-12-26T10:15:57.259Z,10.19
2022-12-26T10:18:47.829Z,10.20
2022-12-26T10:21:35.249Z,10.20
2022-12-26T10:24:12.792Z,10.14
2022-12-26T10:26:50.334Z,10.20
2022-12-26T10:29:28.633Z,10.18
2022-12-26T10:32:02.789Z,10.16
2022-12-26T10:34:32.803Z,10.15
2022-12-26T10:37:16.555Z,10.13
2022-12-26T10:39:48.715Z,10.12
2022-12-26T10:42:23.074Z,10.12
2022-12-26T10:44:49.887Z,10.13
2022-12-26T10:47:22.423Z,10.16
2022-12-26T10:49:49.748Z,10.14
2022-12-26T10:52:18.787Z,10.15
2022-12-26T10:55:29.541Z,10.15
2022-12-26T10:57:46.479Z,10.16
2022-12-26T11:00:24.868Z,10.18
2022-12-26T11:03:09.870Z,10.18
2022-12-26T11:05:57.359Z,10.19
2022-12-26T11:08:47.469Z,10.19
2022-12-26T11:11:46.060Z,10.21
2022-12-26T11:14:37.800Z,10.21
2022-12-26T11:17:12.133Z,10.21
2022-12-26T11:19:44.260Z,10.23
2022-12-26T11:22:22.049Z,10.25
2022-12-26T11:25:10.824Z,10.29
2022-12-26T11:27:44.113Z,10.30
2022-12-26T11:30:18.969Z,10.32
2022-12-26T11:32:49.654Z,10.29
2022-12-26T11:35:27.239Z,10.32
2022-12-26T11:37:58.619Z,10.32
2022-12-26T11:40:32.913Z,10.33
2022-12-26T11:43:03.134Z,10.33
2022-12-26T11:45:37.085Z,10.32
2022-12-26T11:48:19.034Z,10.31
2022-12-26T11:50:46.824Z,10.31
2022-12-26T11:53:18.863Z,10.31
2022-12-26T11:56:01.137Z,10.29
2022-12-26T11:58:32.409Z,10.29
2022-12-26T12:00:59.809Z,10.31
2022-12-26T12:03:49.280Z,10.30
2022-12-26T12:06:46.415Z,10.33
2022-12-26T12:09:21.939Z,10.31
2022-12-26T12:12:27.100Z,10.35
2022-12-26T12:15:10.080Z,10.37
2022-12-26T12:17:54.752Z,10.35
2022-12-26T12:20:30.390Z,10.34
2022-12-26T12:23:36.122Z,10.34
2022-12-26T12:26:11.454Z,10.33
2022-12-26T12:28:46.952Z,10.35
2022-12-26T12:31:41.562Z,10.35
2022-12-26T12:34:32.157Z,10.38
2022-12-26T12:37:37.650Z,10.38
2022-12-26T12:40:30.670Z,10.40
2022-12-26T12:43:24.713Z,10.41
2022-12-26T12:46:08.180Z,10.40
2022-12-26T12:48:41.066Z,10.36
2022-12-26T12:51:34.485Z,10.38
2022-12-26T12:54:27.897Z,10.40
2022-12-26T12:57:07.247Z,10.40
2022-12-26T13:00:15.518Z,10.43
2022-12-26T13:02:50.188Z,10.41
2022-12-26T13:05:33.971Z,10.44
2022-12-26T13:08:33.041Z,10.43
2022-12-26T13:11:06.207Z,10.43
2022-12-26T13:13:40.498Z,10.43
2022-12-26T13:16:18.373Z,10.42
2022-12-26T13:18:56.203Z,10.43
2022-12-26T13:21:25.324Z,10.40
2022-12-26T13:24:24.778Z,10.38
2022-12-26T13:27:06.964Z,10.35
2022-12-26T13:29:42.537Z,10.36
2022-12-26T13:32:27.861Z,10.35
2022-12-26T13:34:57.878Z,10.32
2022-12-26T13:37:39.615Z,10.33
2022-12-26T13:40:14.182Z,10.36
2022-12-26T13:43:06.009Z,10.35
2022-12-26T13:45:35.952Z,10.32
2022-12-26T13:48:27.407Z,10.34
2022-12-26T13:50:57.149Z,10.31
2022-12-26T13:53:26.907Z,10.30
2022-12-26T13:55:59.452Z,10.32
2022-12-26T13:58:32.717Z,10.29
2022-12-26T14:01:20.309Z,10.29
2022-12-26T14:04:11.614Z,10.26
2022-12-26T14:06:46.768Z,10.26
2022-12-26T14:09:23.913Z,10.23
2022-12-26T14:12:05.998Z,10.22
2022-12-26T14:14:57.020Z,10.21
2022-12-26T14:17:54.462Z,10.22
2022-12-26T14:20:58.695Z,10.20
2022-12-26T14:23:45.964Z,10.16
2022-12-26T14:26:38.886Z,10.12
2022-12-26T14:29:30.753Z,10.06
2022-12-26T14:32:10.366Z,10.04
2022-12-26T14:34:59.453Z,10.03
2022-12-26T14:37:55.267Z,10.01
2022-12-26T14:40:34.858Z,10.02
2022-12-26T14:43:16.861Z,10.01
2022-12-26T14:45:53.378Z,9.99
2022-12-26T14:48:23.466Z,9.98
2022-12-26T14:50:52.093Z,9.98
2022-12-26T14:53:25.181Z,9.96
2022-12-26T14:56:02.481Z,9.96
2022-12-26T14:58:32.300Z,9.96
2022-12-26T15:01:18.311Z,9.94
2022-12-26T15:04:02.172Z,9.95
2022-12-26T15:06:47.015Z,9.96
2022-12-26T15:09:31.827Z,9.96
2022-12-26T15:12:19.760Z,9.94
2022-12-26T15:15:16.142Z,9.96
2022-12-26T15:18:20.190Z,9.97
2022-12-26T15:21:05.626Z,9.96
2022-12-26T15:23:48.203Z,9.96
2022-12-26T15:26:39.754Z,9.95
2022-12-26T15:29:36.030Z,9.93
2022-12-26T15:32:23.941Z,9.91
2022-12-26T15:35:01.673Z,9.90
2022-12-26T15:37:53.612Z,9.91
2022-12-26T15:40:24.839Z,9.91
2022-12-26T15:43:18.245Z,9.93
2022-12-26T15:46:04.432Z,9.91
2022-12-26T15:48:56.684Z,9.91
2022-12-26T15:51:31.849Z,9.93
2022-12-26T15:54:07.302Z,9.90
2022-12-26T15:57:08.296Z,9.90
2022-12-26T16:00:13.917Z,9.92
2022-12-26T16:03:05.706Z,9.93
2022-12-26T16:05:51.474Z,9.90
2022-12-26T16:09:05.960Z,9.91
2022-12-26T16:11:49.071Z,9.97
2022-12-26T16:14:42.871Z,10.01
2022-12-26T16:17:15.381Z,9.90
2022-12-26T16:19:47.677Z,9.56
2022-12-26T16:22:43.733Z,9.00
2022-12-26T16:25:20.305Z,8.65
2022-12-26T16:27:49.750Z,8.44
2022-12-26T16:30:27.071Z,8.31
2022-12-26T16:32:54.344Z,8.22
2022-12-26T16:35:25.598Z,8.15
2022-12-26T16:37:55.264Z,8.12
2022-12-26T16:40:27.747Z,8.06
2022-12-26T16:43:17.531Z,8.02
2022-12-26T16:45:47.838Z,7.98
2022-12-26T16:48:18.496Z,7.98
2022-12-26T16:50:56.053Z,7.99
2022-12-26T16:53:44.706Z,7.99
2022-12-26T16:56:23.711Z,8.01
2022-12-26T16:59:02.725Z,8.07
2022-12-26T17:01:31.605Z,8.10
2022-12-26T17:04:02.299Z,8.15
2022-12-26T17:06:37.123Z,8.17
2022-12-26T17:09:08.679Z,8.17
2022-12-26T17:11:39.167Z,8.21
2022-12-26T17:14:16.352Z,8.25
2022-12-26T17:16:43.070Z,8.27
2022-12-26T17:19:19.906Z,8.28
2022-12-26T17:22:14.669Z,8.25
2022-12-26T17:24:42.148Z,8.20
2022-12-26T17:27:12.601Z,8.16
2022-12-26T17:30:00.832Z,8.10
2022-12-26T17:32:39.975Z,8.06
2022-12-26T17:35:07.049Z,8.05
2022-12-26T17:37:33.943Z,8.05
2022-12-26T17:40:04.526Z,8.06
2022-12-26T17:42:42.799Z,8.09
2022-12-26T17:45:15.309Z,8.06
2022-12-26T17:47:42.071Z,8.03
2022-12-26T17:50:08.990Z,8.00
2022-12-26T17:52:37.435Z,7.93
2022-12-26T17:55:06.675Z,7.93
2022-12-26T17:57:33.465Z,7.95
2022-12-26T18:00:00.283Z,7.96
2022-12-26T18:02:27.111Z,7.99
2022-12-26T18:04:54.134Z,8.02
2022-12-26T18:07:31.506Z,8.07
2022-12-26T18:10:00.270Z,8.13
2022-12-26T18:12:27.302Z,8.13
2022-12-26T18:15:01.085Z,8.13
2022-12-26T18:17:31.742Z,8.13
2022-12-26T18:19:59.103Z,8.11
2022-12-26T18:22:25.976Z,8.10
2022-12-26T18:24:52.749Z,8.07
2022-12-26T18:27:24.041Z,8.06
2022-12-26T18:29:50.832Z,8.05
2022-12-26T18:32:24.730Z,8.05
2022-12-26T18:34:52.470Z,8.07
2022-12-26T18:37:20.418Z,8.08
2022-12-26T18:39:47.353Z,8.05
2022-12-26T18:42:15.607Z,8.05
2022-12-26T18:44:43.328Z,7.99
2022-12-26T18:47:15.908Z,7.97
2022-12-26T18:49:43.790Z,7.92
2022-12-26T18:52:11.345Z,7.87
2022-12-26T18:54:44.346Z,7.87
2022-12-26T18:57:17.490Z,7.87
2022-12-26T18:59:44.420Z,7.84
2022-12-26T19:02:16.490Z,7.80
2022-12-26T19:04:43.359Z,7.75
2022-12-26T19:07:11.396Z,7.72
2022-12-26T19:09:38.297Z,7.71
2022-12-26T19:12:05.519Z,7.73
2022-12-26T19:14:32.288Z,7.74
2022-12-26T19:16:59.019Z,7.75
2022-12-26T19:19:28.717Z,7.75
2022-12-26T19:21:56.421Z,7.76
2022-12-26T19:24:23.548Z,7.75
2022-12-26T19:26:50.291Z,7.77
2022-12-26T19:29:17.055Z,7.79
2022-12-26T19:31:43.931Z,7.82
2022-12-26T19:34:10.680Z,7.81
2022-12-26T19:36:37.865Z,7.76
2022-12-26T19:39:04.955Z,7.72
2022-12-26T19:41:31.938Z,7.71
2022-12-26T19:43:59.497Z,7.68
2022-12-26T19:46:27.534Z,7.68
2022-12-26T19:48:54.933Z,7.66
2022-12-26T19:51:22.370Z,7.61
2022-12-26T19:53:49.109Z,7.56
2022-12-26T19:56:21.641Z,7.46
2022-12-26T19:58:53.253Z,7.44
2022-12-26T20:01:25.527Z,7.40
2022-12-26T20:03:57.225Z,7.40
2022-12-26T20:06:26.556Z,7.40
2022-12-26T20:08:57.921Z,7.41
2022-12-26T20:11:29.057Z,7.43
2022-12-26T20:13:56.290Z,7.42
2022-12-26T20:17:03.149Z,7.44
2022-12-26T20:19:12.035Z,7.43
2022-12-26T20:21:38.778Z,7.45
2022-12-26T20:24:05.829Z,7.44
2022-12-26T20:26:32.871Z,7.47
2022-12-26T20:29:03.579Z,7.48
2022-12-26T20:31:33.115Z,7.51
2022-12-26T20:34:00.777Z,7.50
2022-12-26T20:36:29.871Z,7.48
2022-12-26T20:38:59.319Z,7.47
2022-12-26T20:41:27.306Z,7.44
2022-12-26T20:43:54.131Z,7.43
2022-12-26T20:46:32.148Z,7.40
2022-12-26T20:49:01.611Z,7.43
2022-12-26T20:51:37.015Z,7.40
2022-12-26T20:54:06.638Z,7.37
2022-12-26T20:56:34.153Z,7.37
2022-12-26T20:59:00.974Z,7.36
2022-12-26T21:01:28.603Z,7.34
2022-12-26T21:03:57.297Z,7.29
2022-12-26T21:06:29.640Z,7.29
2022-12-26T21:08:57.832Z,7.28
2022-12-26T21:11:43.096Z,7.24
2022-12-26T21:14:17.148Z,7.23
2022-12-26T21:16:47.712Z,7.21
2022-12-26T21:19:15.829Z,7.16
2022-12-26T21:21:45.653Z,7.19
2022-12-26T21:24:17.437Z,7.18
2022-12-26T21:26:44.900Z,7.17
2022-12-26T21:29:15.470Z,7.19
2022-12-26T21:31:42.550Z,7.18
2022-12-26T21:34:12.458Z,7.20
2022-12-26T21:36:39.289Z,7.20
2022-12-26T21:39:10.370Z,7.22
2022-12-26T21:41:37.860Z,7.21
2022-12-26T21:44:05.280Z,7.22
2022-12-26T21:46:32.252Z,7.21
2022-12-26T21:49:00.834Z,7.21
2022-12-26T21:51:28.934Z,7.22
2022-12-26T21:54:15.697Z,7.23
2022-12-26T21:56:42.478Z,7.25
2022-12-26T21:59:28.005Z,7.25
2022-12-26T22:01:54.826Z,7.27
2022-12-26T22:04:23.778Z,7.22
2022-12-26T22:06:51.429Z,7.20
2022-12-26T22:09:19.880Z,7.15
2022-12-26T22:12:06.356Z,7.24
2022-12-26T22:14:33.856Z,7.24
2022-12-26T22:17:00.607Z,7.19
2022-12-26T22:19:27.647Z,7.14
2022-12-26T22:21:55.041Z,7.09
2022-12-26T22:24:22.333Z,7.08
2022-12-26T22:26:49.343Z,7.07
2022-12-26T22:29:16.653Z,7.03
2022-12-26T22:31:43.767Z,6.97
2022-12-26T22:34:12.707Z,6.94
2022-12-26T22:36:40.828Z,6.87
2022-12-26T22:39:08.075Z,6.79
2022-12-26T22:41:35.171Z,6.72
2022-12-26T22:44:02.508Z,6.67
2022-12-26T22:46:29.404Z,6.64
2022-12-26T22:48:56.369Z,6.57
2022-12-26T22:51:25.317Z,6.53
2022-12-26T22:53:59.450Z,6.44
2022-12-26T22:56:27.144Z,6.35
2022-12-26T22:58:55.230Z,6.26
2022-12-26T23:01:23.267Z,6.17
2022-12-26T23:03:50.146Z,6.12
2022-12-26T23:06:29.008Z,6.07
2022-12-26T23:08:58.216Z,6.00
2022-12-26T23:11:33.927Z,5.86
2022-12-26T23:14:02.484Z,5.82
2022-12-26T23:16:53.449Z,5.81
2022-12-26T23:19:58.034Z,5.76
2022-12-26T23:22:24.949Z,5.67
2022-12-26T23:24:51.733Z,5.61
2022-12-26T23:27:37.047Z,5.58
2022-12-26T23:30:20.019Z,5.52
2022-12-26T23:32:53.327Z,5.48
2022-12-26T23:35:22.407Z,5.42
2022-12-26T23:37:49.689Z,5.37
2022-12-26T23:40:17.860Z,5.33
2022-12-26T23:42:44.762Z,5.30
2022-12-26T23:45:13.598Z,5.30
2022-12-26T23:47:42.505Z,5.32
2022-12-26T23:50:11.615Z,5.33
2022-12-26T23:52:39.133Z,5.27
2022-12-26T23:55:06.738Z,5.30
2022-12-26T23:57:33.540Z,5.28
